sensor_id;sensor_type;location;lat;lon;timestamp;pressure;altitude;pressure_sealevel;temperature;humidity
46506;BME280;32220;49.808;9.968;2023-05-01T00:01:28;98977.72;;;11.26;55.96
46506;BME280;32220;49.808;9.968;2023-05-01T00:03:55;98993.09;;;11.35;55.57
46506;BME280;32220;49.808;9.968;2023-05-01T00:06:23;98962.41;;;11.16;55.30
46506;BME280;32220;49.808;9.968;2023-05-01T00:08:51;98983.69;;;11.29;56.12
46506;BME280;32220;49.808;9.968;2023-05-01T00:11:18;98982.19;;;11.25;56.10
46506;BME280;32220;49.808;9.968;2023-05-01T00:13:47;98983.25;;;11.23;56.43
46506;BME280;32220;49.808;9.968;2023-05-01T00:16:15;98978.13;;;11.20;56.62
46506;BME280;32220;49.808;9.968;2023-05-01T00:18:43;98966.00;;;11.15;57.31
46506;BME280;32220;49.808;9.968;2023-05-01T00:21:10;98959.22;;;11.11;57.92
46506;BME280;32220;49.808;9.968;2023-05-01T00:23:38;98964.53;;;11.11;57.56
46506;BME280;32220;49.808;9.968;2023-05-01T00:26:06;98954.09;;;11.08;57.45
46506;BME280;32220;49.808;9.968;2023-05-01T00:28:34;98955.81;;;11.09;57.38
46506;BME280;32220;49.808;9.968;2023-05-01T00:31:04;98952.41;;;11.07;57.79
46506;BME280;32220;49.808;9.968;2023-05-01T00:33:31;98956.00;;;11.06;58.18
46506;BME280;32220;49.808;9.968;2023-05-01T00:35:59;98955.25;;;11.04;58.37
46506;BME280;32220;49.808;9.968;2023-05-01T00:38:27;98955.25;;;11.04;58.09
46506;BME280;32220;49.808;9.968;2023-05-01T00:40:54;98953.44;;;11.05;57.89
46506;BME280;32220;49.808;9.968;2023-05-01T00:43:22;98941.31;;;11.01;58.33
46506;BME280;32220;49.808;9.968;2023-05-01T00:45:50;98944.81;;;11.01;58.54
46506;BME280;32220;49.808;9.968;2023-05-01T00:48:19;98940.47;;;11.00;58.11
46506;BME280;32220;49.808;9.968;2023-05-01T00:50:48;98946.75;;;10.99;57.93
46506;BME280;32220;49.808;9.968;2023-05-01T00:53:16;98926.00;;;10.92;58.43
46506;BME280;32220;49.808;9.968;2023-05-01T00:55:44;98909.84;;;10.82;58.49
46506;BME280;32220;49.808;9.968;2023-05-01T00:58:12;98932.84;;;10.96;58.88
46506;BME280;32220;49.808;9.968;2023-05-01T01:00:41;98925.81;;;10.95;58.47
46506;BME280;32220;49.808;9.968;2023-05-01T01:03:09;98929.31;;;10.95;58.96
46506;BME280;32220;49.808;9.968;2023-05-01T01:05:42;98928.56;;;10.93;58.93
46506;BME280;32220;49.808;9.968;2023-05-01T01:08:18;98925.91;;;10.93;58.79
46506;BME280;32220;49.808;9.968;2023-05-01T01:10:52;98909.66;;;10.85;59.11
46506;BME280;32220;49.808;9.968;2023-05-01T01:13:28;98921.75;;;10.89;59.01
46506;BME280;32220;49.808;9.968;2023-05-01T01:16:04;98911.38;;;10.86;59.53
46506;BME280;32220;49.808;9.968;2023-05-01T01:18:39;98907.97;;;10.84;59.51
46506;BME280;32220;49.808;9.968;2023-05-01T01:21:17;98905.31;;;10.84;59.53
46506;BME280;32220;49.808;9.968;2023-05-01T01:24:21;98904.53;;;10.82;59.13
46506;BME280;32220;49.808;9.968;2023-05-01T01:30:33;98902.94;;;10.79;59.32
46506;BME280;32220;49.808;9.968;2023-05-01T01:33:21;98905.69;;;10.78;59.54
46506;BME280;32220;49.808;9.968;2023-05-01T01:35:55;98899.84;;;10.73;59.96
46506;BME280;32220;49.808;9.968;2023-05-01T01:38:29;98901.53;;;10.74;59.85
46506;BME280;32220;49.808;9.968;2023-05-01T01:41:06;98892.25;;;10.67;59.77
46506;BME280;32220;49.808;9.968;2023-05-01T01:43:38;98892.25;;;10.67;59.42
46506;BME280;32220;49.808;9.968;2023-05-01T01:46:07;98903.78;;;10.66;59.97
46506;BME280;32220;49.808;9.968;2023-05-01T01:48:41;98900.28;;;10.65;59.66
46506;BME280;32220;49.808;9.968;2023-05-01T01:51:14;98889.78;;;10.64;60.06
46506;BME280;32220;49.808;9.968;2023-05-01T01:53:45;98891.72;;;10.62;60.00
46506;BME280;32220;49.808;9.968;2023-05-01T01:56:16;98888.38;;;10.58;59.82
46506;BME280;32220;49.808;9.968;2023-05-01T01:58:46;98866.34;;;10.43;60.05
46506;BME280;32220;49.808;9.968;2023-05-01T02:01:15;98878.06;;;10.54;60.08
46506;BME280;32220;49.808;9.968;2023-05-01T02:03:45;98873.00;;;10.51;60.48
46506;BME280;32220;49.808;9.968;2023-05-01T02:06:16;98863.63;;;10.45;60.47
46506;BME280;32220;49.808;9.968;2023-05-01T02:08:45;98870.69;;;10.44;60.30
46506;BME280;32220;49.808;9.968;2023-05-01T02:11:15;98873.34;;;10.44;60.23
46506;BME280;32220;49.808;9.968;2023-05-01T02:13:45;98865.69;;;10.40;60.94
46506;BME280;32220;49.808;9.968;2023-05-01T02:16:14;98865.81;;;10.38;60.44
46506;BME280;32220;49.808;9.968;2023-05-01T02:18:43;98844.63;;;10.24;60.43
46506;BME280;32220;49.808;9.968;2023-05-01T02:21:12;98861.63;;;10.34;60.86
46506;BME280;32220;49.808;9.968;2023-05-01T02:23:42;98861.81;;;10.31;60.90
46506;BME280;32220;49.808;9.968;2023-05-01T02:26:14;98856.53;;;10.31;61.29
46506;BME280;32220;49.808;9.968;2023-05-01T02:28:43;98863.69;;;10.29;61.47
46506;BME280;32220;49.808;9.968;2023-05-01T02:31:10;98845.03;;;10.17;61.08
46506;BME280;32220;49.808;9.968;2023-05-01T02:33:38;98847.63;;;10.18;61.36
46506;BME280;32220;49.808;9.968;2023-05-01T02:36:06;98863.88;;;10.26;61.00
46506;BME280;32220;49.808;9.968;2023-05-01T02:38:34;98870.16;;;10.25;61.23
46506;BME280;32220;49.808;9.968;2023-05-01T02:41:03;98858.97;;;10.20;61.52
46506;BME280;32220;49.808;9.968;2023-05-01T02:43:33;98862.19;;;10.25;61.09
46506;BME280;32220;49.808;9.968;2023-05-01T02:46:03;98868.44;;;10.24;60.77
46506;BME280;32220;49.808;9.968;2023-05-01T02:48:33;98865.69;;;10.26;60.78
46506;BME280;32220;49.808;9.968;2023-05-01T02:51:03;98850.41;;;10.15;61.14
46506;BME280;32220;49.808;9.968;2023-05-01T02:53:31;98857.94;;;10.23;60.87
46506;BME280;32220;49.808;9.968;2023-05-01T02:56:07;98859.72;;;10.22;60.82
46506;BME280;32220;49.808;9.968;2023-05-01T02:58:35;98855.38;;;10.21;60.91
46506;BME280;32220;49.808;9.968;2023-05-01T03:01:03;98854.63;;;10.19;60.68
46506;BME280;32220;49.808;9.968;2023-05-01T03:03:30;98851.28;;;10.16;60.28
46506;BME280;32220;49.808;9.968;2023-05-01T03:05:58;98859.13;;;10.17;60.08
46506;BME280;32220;49.808;9.968;2023-05-01T03:08:29;98854.00;;;10.14;59.88
46506;BME280;32220;49.808;9.968;2023-05-01T03:10:57;98837.19;;;10.01;59.86
46506;BME280;32220;49.808;9.968;2023-05-01T03:13:26;98849.88;;;10.10;59.60
46506;BME280;32220;49.808;9.968;2023-05-01T03:15:53;98845.69;;;10.06;59.74
46506;BME280;32220;49.808;9.968;2023-05-01T03:18:21;98851.38;;;10.00;60.29
46506;BME280;32220;49.808;9.968;2023-05-01T03:20:52;98851.38;;;10.00;61.28
46506;BME280;32220;49.808;9.968;2023-05-01T03:23:22;98851.53;;;9.97;61.61
46506;BME280;32220;49.808;9.968;2023-05-01T03:25:50;98837.72;;;9.92;61.94
46506;BME280;32220;49.808;9.968;2023-05-01T03:28:20;98836.03;;;9.91;62.22
46506;BME280;32220;49.808;9.968;2023-05-01T03:30:52;98834.53;;;9.87;63.21
46506;BME280;32220;49.808;9.968;2023-05-01T03:33:20;98834.53;;;9.87;62.72
46506;BME280;32220;49.808;9.968;2023-05-01T03:35:58;98831.13;;;9.85;62.92
46506;BME280;32220;49.808;9.968;2023-05-01T03:38:26;98829.59;;;9.81;62.92
46506;BME280;32220;49.808;9.968;2023-05-01T03:41:20;98836.59;;;9.82;62.79
46506;BME280;32220;49.808;9.968;2023-05-01T03:44:27;98843.75;;;9.80;62.92
46506;BME280;32220;49.808;9.968;2023-05-01T03:46:56;98847.25;;;9.80;62.44
46506;BME280;32220;49.808;9.968;2023-05-01T03:49:27;98835.25;;;9.75;62.36
46506;BME280;32220;49.808;9.968;2023-05-01T03:51:55;98849.03;;;9.80;62.21
46506;BME280;32220;49.808;9.968;2023-05-01T03:54:23;98851.69;;;9.80;62.56
46506;BME280;32220;49.808;9.968;2023-05-01T03:57:01;98831.84;;;9.72;62.26
46506;BME280;32220;49.808;9.968;2023-05-01T03:59:29;98843.19;;;9.75;62.21
46506;BME280;32220;49.808;9.968;2023-05-01T04:01:59;98854.25;;;9.81;62.11
46506;BME280;32220;49.808;9.968;2023-05-01T04:04:29;98824.25;;;9.66;62.37
46506;BME280;32220;49.808;9.968;2023-05-01T04:06:58;98836.75;;;9.79;62.47
46506;BME280;32220;49.808;9.968;2023-05-01T04:09:26;98836.59;;;9.82;62.61
46506;BME280;32220;49.808;9.968;2023-05-01T04:11:56;98840.75;;;9.86;62.19
46506;BME280;32220;49.808;9.968;2023-05-01T04:14:26;98819.19;;;9.78;62.93
46506;BME280;32220;49.808;9.968;2023-05-01T04:16:54;98832.66;;;9.89;62.88
46506;BME280;32220;49.808;9.968;2023-05-01T04:19:24;98833.38;;;9.91;62.44
46506;BME280;32220;49.808;9.968;2023-05-01T04:21:56;98833.28;;;9.92;62.50
46506;BME280;32220;49.808;9.968;2023-05-01T04:24:25;98826.28;;;9.91;62.36
46506;BME280;32220;49.808;9.968;2023-05-01T04:26:53;98823.38;;;9.96;62.15
46506;BME280;32220;49.808;9.968;2023-05-01T04:29:21;98834.72;;;9.98;62.58
46506;BME280;32220;49.808;9.968;2023-05-01T04:31:49;98785.97;;;9.73;61.87
46506;BME280;32220;49.808;9.968;2023-05-01T04:34:16;98825.47;;;10.05;61.98
46506;BME280;32220;49.808;9.968;2023-05-01T04:36:48;98827.09;;;10.07;62.09
46506;BME280;32220;49.808;9.968;2023-05-01T04:39:17;98835.38;;;10.16;62.02
46506;BME280;32220;49.808;9.968;2023-05-01T04:41:45;98835.16;;;10.20;61.83
46506;BME280;32220;49.808;9.968;2023-05-01T04:44:12;98839.31;;;10.24;61.53
46506;BME280;32220;49.808;9.968;2023-05-01T04:46:40;98842.44;;;10.31;61.24
46506;BME280;32220;49.808;9.968;2023-05-01T04:49:08;98840.28;;;10.37;60.98
46506;BME280;32220;49.808;9.968;2023-05-01T04:51:36;98843.28;;;10.46;61.05
46506;BME280;32220;49.808;9.968;2023-05-01T04:54:06;98843.09;;;10.49;61.05
46506;BME280;32220;49.808;9.968;2023-05-01T04:56:38;98843.66;;;10.54;60.93
46506;BME280;32220;49.808;9.968;2023-05-01T04:59:06;98835.69;;;10.54;60.98
46506;BME280;32220;49.808;9.968;2023-05-01T05:01:36;98841.94;;;10.53;60.58
46506;BME280;32220;49.808;9.968;2023-05-01T05:04:04;98841.00;;;10.54;60.80
46506;BME280;32220;49.808;9.968;2023-05-01T05:06:32;98852.34;;;10.56;60.76
46506;BME280;32220;49.808;9.968;2023-05-01T05:09:00;98851.31;;;10.58;60.70
46506;BME280;32220;49.808;9.968;2023-05-01T05:11:29;98831.66;;;10.48;60.47
46506;BME280;32220;49.808;9.968;2023-05-01T05:13:57;98848.25;;;10.64;60.62
46506;BME280;32220;49.808;9.968;2023-05-01T05:16:24;98840.03;;;10.69;60.16
46506;BME280;32220;49.808;9.968;2023-05-01T05:18:54;98844.97;;;10.75;60.03
46506;BME280;32220;49.808;9.968;2023-05-01T05:21:23;98847.97;;;10.83;60.24
46506;BME280;32220;49.808;9.968;2023-05-01T05:23:54;98842.94;;;10.93;60.29
46506;BME280;32220;49.808;9.968;2023-05-01T05:26:22;98842.41;;;11.00;60.00
46506;BME280;32220;49.808;9.968;2023-05-01T05:28:53;98851.09;;;11.16;59.66
46506;BME280;32220;49.808;9.968;2023-05-01T05:31:21;98846.88;;;11.27;59.55
46506;BME280;32220;49.808;9.968;2023-05-01T05:33:49;98852.03;;;11.42;59.11
46506;BME280;32220;49.808;9.968;2023-05-01T05:36:17;98852.06;;;11.55;58.87
46506;BME280;32220;49.808;9.968;2023-05-01T05:38:45;98829.72;;;11.59;58.95
46506;BME280;32220;49.808;9.968;2023-05-01T05:41:16;98833.44;;;11.69;58.58
46506;BME280;32220;49.808;9.968;2023-05-01T05:43:45;98829.03;;;11.82;58.50
46506;BME280;32220;49.808;9.968;2023-05-01T05:46:14;98853.69;;;12.10;57.74
46506;BME280;32220;49.808;9.968;2023-05-01T05:48:42;98854.75;;;12.20;57.45
46506;BME280;32220;49.808;9.968;2023-05-01T05:51:10;98853.06;;;12.32;57.39
46506;BME280;32220;49.808;9.968;2023-05-01T05:53:38;98855.59;;;12.46;56.27
46506;BME280;32220;49.808;9.968;2023-05-01T05:56:06;98859.09;;;12.59;56.05
46506;BME280;32220;49.808;9.968;2023-05-01T05:58:34;98847.50;;;12.73;55.81
46506;BME280;32220;49.808;9.968;2023-05-01T06:01:02;98844.91;;;12.84;55.27
46506;BME280;32220;49.808;9.968;2023-05-01T06:03:35;98849.94;;;13.00;55.43
46506;BME280;32220;49.808;9.968;2023-05-01T06:06:03;98846.28;;;13.13;54.94
46506;BME280;32220;49.808;9.968;2023-05-01T06:08:32;98865.00;;;13.12;53.78
46506;BME280;32220;49.808;9.968;2023-05-01T06:11:00;98826.44;;;13.06;53.41
46506;BME280;32220;49.808;9.968;2023-05-01T06:13:28;98861.22;;;13.40;54.11
46506;BME280;32220;49.808;9.968;2023-05-01T06:15:55;98861.06;;;13.54;53.50
46506;BME280;32220;49.808;9.968;2023-05-01T06:18:23;98857.63;;;13.76;53.73
46506;BME280;32220;49.808;9.968;2023-05-01T06:20:52;98867.22;;;13.89;52.48
46506;BME280;32220;49.808;9.968;2023-05-01T06:23:20;98840.66;;;14.12;53.00
46506;BME280;32220;49.808;9.968;2023-05-01T06:26:06;98860.84;;;14.49;51.68
46506;BME280;32220;49.808;9.968;2023-05-01T06:28:35;98850.31;;;14.81;51.19
46506;BME280;32220;49.808;9.968;2023-05-01T06:31:03;98859.56;;;15.31;50.21
46506;BME280;32220;49.808;9.968;2023-05-01T06:33:34;98868.34;;;15.86;48.86
46506;BME280;32220;49.808;9.968;2023-05-01T06:36:15;98862.03;;;16.29;48.17
46506;BME280;32220;49.808;9.968;2023-05-01T06:38:42;98867.81;;;16.55;48.53
46506;BME280;32220;49.808;9.968;2023-05-01T06:41:14;98815.63;;;16.30;47.01
46506;BME280;32220;49.808;9.968;2023-05-01T06:43:42;98859.78;;;16.75;47.77
46506;BME280;32220;49.808;9.968;2023-05-01T06:46:10;98857.25;;;16.83;46.78
46506;BME280;32220;49.808;9.968;2023-05-01T06:48:38;98863.41;;;17.05;46.87
46506;BME280;32220;49.808;9.968;2023-05-01T06:51:06;98867.53;;;17.28;46.56
46506;BME280;32220;49.808;9.968;2023-05-01T06:53:35;98863.63;;;17.51;46.06
46506;BME280;32220;49.808;9.968;2023-05-01T06:56:03;98864.88;;;17.47;45.33
46506;BME280;32220;49.808;9.968;2023-05-01T06:58:31;98850.59;;;17.68;45.76
46506;BME280;32220;49.808;9.968;2023-05-01T07:00:59;98892.31;;;17.99;43.69
46506;BME280;32220;49.808;9.968;2023-05-01T07:03:27;98882.00;;;18.14;44.39
46506;BME280;32220;49.808;9.968;2023-05-01T07:05:55;98877.75;;;18.21;42.62
46506;BME280;32220;49.808;9.968;2023-05-01T07:08:23;98888.16;;;18.34;43.29
46506;BME280;32220;49.808;9.968;2023-05-01T07:10:54;98883.63;;;18.44;43.75
46506;BME280;32220;49.808;9.968;2023-05-01T07:13:21;98893.50;;;18.53;42.43
46506;BME280;32220;49.808;9.968;2023-05-01T07:15:49;98883.91;;;18.60;43.08
46506;BME280;32220;49.808;9.968;2023-05-01T07:18:17;98892.38;;;18.65;42.15
46506;BME280;32220;49.808;9.968;2023-05-01T07:20:45;98896.31;;;18.61;40.92
46506;BME280;32220;49.808;9.968;2023-05-01T07:23:15;98882.31;;;18.67;41.28
46506;BME280;32220;49.808;9.968;2023-05-01T07:25:43;98879.06;;;18.73;41.31
46506;BME280;32220;49.808;9.968;2023-05-01T07:28:13;98872.00;;;18.72;40.55
46506;BME280;32220;49.808;9.968;2023-05-01T07:30:46;98873.09;;;18.79;40.58
46506;BME280;32220;49.808;9.968;2023-05-01T07:33:14;98855.91;;;18.72;40.61
46506;BME280;32220;49.808;9.968;2023-05-01T07:35:41;98857.00;;;18.79;40.88
46506;BME280;32220;49.808;9.968;2023-05-01T07:38:09;98862.53;;;18.78;41.22
46506;BME280;32220;49.808;9.968;2023-05-01T07:40:37;98852.19;;;18.83;41.23
46506;BME280;32220;49.808;9.968;2023-05-01T07:43:05;98856.38;;;18.95;41.48
46506;BME280;32220;49.808;9.968;2023-05-01T07:45:37;98838.72;;;18.92;40.83
46506;BME280;32220;49.808;9.968;2023-05-01T07:48:05;98829.53;;;18.95;41.25
46506;BME280;32220;49.808;9.968;2023-05-01T07:50:33;98848.59;;;19.01;41.41
46506;BME280;32220;49.808;9.968;2023-05-01T07:53:00;98844.19;;;19.00;42.05
46506;BME280;32220;49.808;9.968;2023-05-01T07:55:28;98842.44;;;18.82;40.49
46506;BME280;32220;49.808;9.968;2023-05-01T07:57:56;98847.09;;;18.89;41.19
46506;BME280;32220;49.808;9.968;2023-05-01T08:00:24;98856.06;;;18.98;40.24
46506;BME280;32220;49.808;9.968;2023-05-01T08:02:53;98846.63;;;19.21;40.67
46506;BME280;32220;49.808;9.968;2023-05-01T08:05:21;98841.28;;;19.39;39.96
46506;BME280;32220;49.808;9.968;2023-05-01T08:07:48;98845.84;;;19.56;38.62
46506;BME280;32220;49.808;9.968;2023-05-01T08:10:16;98855.47;;;19.77;38.79
46506;BME280;32220;49.808;9.968;2023-05-01T08:12:44;98860.50;;;19.97;38.42
46506;BME280;32220;49.808;9.968;2023-05-01T08:15:12;98840.91;;;20.05;37.97
46506;BME280;32220;49.808;9.968;2023-05-01T08:17:40;98849.47;;;20.26;38.40
46506;BME280;32220;49.808;9.968;2023-05-01T08:20:11;98816.28;;;20.35;38.67
46506;BME280;32220;49.808;9.968;2023-05-01T08:22:39;98864.59;;;20.71;37.19
46506;BME280;32220;49.808;9.968;2023-05-01T08:25:07;98856.44;;;20.89;36.56
46506;BME280;32220;49.808;9.968;2023-05-01T08:27:36;98839.63;;;20.95;37.20
46506;BME280;32220;49.808;9.968;2023-05-01T08:30:05;98837.31;;;21.00;36.47
46506;BME280;32220;49.808;9.968;2023-05-01T08:32:33;98848.41;;;20.97;36.05
46506;BME280;32220;49.808;9.968;2023-05-01T08:35:00;98846.19;;;20.92;35.93
46506;BME280;32220;49.808;9.968;2023-05-01T08:37:29;98859.31;;;20.95;35.90
46506;BME280;32220;49.808;9.968;2023-05-01T08:39:57;98844.16;;;20.86;36.74
46506;BME280;32220;49.808;9.968;2023-05-01T08:42:25;98860.00;;;20.97;36.58
46506;BME280;32220;49.808;9.968;2023-05-01T08:44:55;98845.16;;;20.85;37.02
46506;BME280;32220;49.808;9.968;2023-05-01T08:47:26;98868.69;;;20.83;36.80
46506;BME280;32220;49.808;9.968;2023-05-01T08:49:56;98862.06;;;20.69;37.31
46506;BME280;32220;49.808;9.968;2023-05-01T08:52:27;98863.16;;;20.59;37.46
46506;BME280;32220;49.808;9.968;2023-05-01T08:54:58;98868.13;;;20.46;36.72
46506;BME280;32220;49.808;9.968;2023-05-01T08:57:28;98870.34;;;20.32;37.58
46506;BME280;32220;49.808;9.968;2023-05-01T08:59:57;98818.34;;;19.98;38.05
46506;BME280;32220;49.808;9.968;2023-05-01T09:02:26;98871.72;;;20.11;37.42
46506;BME280;32220;49.808;9.968;2023-05-01T09:04:54;98873.88;;;19.89;37.16
46506;BME280;32220;49.808;9.968;2023-05-01T09:07:24;98859.03;;;19.67;38.03
46506;BME280;32220;49.808;9.968;2023-05-01T09:09:52;98854.06;;;19.55;38.58
46506;BME280;32220;49.808;9.968;2023-05-01T09:12:24;98841.28;;;19.39;39.10
46506;BME280;32220;49.808;9.968;2023-05-01T09:14:53;98838.81;;;19.28;40.40
46506;BME280;32220;49.808;9.968;2023-05-01T09:17:22;98839.56;;;19.20;40.29
46506;BME280;32220;49.808;9.968;2023-05-01T09:19:52;98822.97;;;19.07;39.94
46506;BME280;32220;49.808;9.968;2023-05-01T09:22:20;98823.81;;;19.08;40.98
46506;BME280;32220;49.808;9.968;2023-05-01T09:24:48;98824.09;;;19.05;41.83
46506;BME280;32220;49.808;9.968;2023-05-01T09:27:15;98813.13;;;18.98;42.23
46506;BME280;32220;49.808;9.968;2023-05-01T09:29:46;98820.19;;;18.99;41.53
46506;BME280;32220;49.808;9.968;2023-05-01T09:32:16;98826.41;;;18.99;41.87
46506;BME280;32220;49.808;9.968;2023-05-01T09:34:46;98819.34;;;18.98;41.47
46506;BME280;32220;49.808;9.968;2023-05-01T09:37:24;98805.94;;;18.98;42.26
46506;BME280;32220;49.808;9.968;2023-05-01T09:40:07;98834.34;;;19.19;40.40
46506;BME280;32220;49.808;9.968;2023-05-01T09:42:36;98826.91;;;19.30;38.91
46506;BME280;32220;49.808;9.968;2023-05-01T09:45:12;98828.09;;;19.46;39.95
46506;BME280;32220;49.808;9.968;2023-05-01T09:47:41;98825.75;;;19.60;40.57
46506;BME280;32220;49.808;9.968;2023-05-01T09:50:10;98816.38;;;19.64;39.10
46506;BME280;32220;49.808;9.968;2023-05-01T09:52:38;98827.50;;;19.87;39.93
46506;BME280;32220;49.808;9.968;2023-05-01T09:55:13;98837.53;;;20.03;38.68
46506;BME280;32220;49.808;9.968;2023-05-01T09:57:42;98825.16;;;20.10;39.66
46506;BME280;32220;49.808;9.968;2023-05-01T10:00:13;98842.34;;;20.17;38.33
46506;BME280;32220;49.808;9.968;2023-05-01T10:02:43;98845.41;;;20.22;37.85
46506;BME280;32220;49.808;9.968;2023-05-01T10:05:12;98836.44;;;20.14;37.22
46506;BME280;32220;49.808;9.968;2023-05-01T10:07:57;98855.47;;;20.20;37.37
46506;BME280;32220;49.808;9.968;2023-05-01T10:10:26;98852.09;;;20.18;38.11
46506;BME280;32220;49.808;9.968;2023-05-01T10:12:54;98837.03;;;20.25;38.02
46506;BME280;32220;49.808;9.968;2023-05-01T10:15:35;98838.06;;;20.32;38.28
46506;BME280;32220;49.808;9.968;2023-05-01T10:18:03;98809.06;;;20.18;38.28
46506;BME280;32220;49.808;9.968;2023-05-01T10:20:31;98834.38;;;20.33;37.42
46506;BME280;32220;49.808;9.968;2023-05-01T10:22:59;98836.81;;;20.36;37.85
46506;BME280;32220;49.808;9.968;2023-05-01T10:25:28;98848.69;;;20.52;38.51
46506;BME280;32220;49.808;9.968;2023-05-01T10:27:57;98844.97;;;20.53;38.56
46506;BME280;32220;49.808;9.968;2023-05-01T10:30:27;98831.78;;;20.41;37.99
46506;BME280;32220;49.808;9.968;2023-05-01T10:32:57;98796.63;;;20.17;38.04
46506;BME280;32220;49.808;9.968;2023-05-01T10:35:28;98835.53;;;20.49;38.39
46506;BME280;32220;49.808;9.968;2023-05-01T10:37:59;98844.13;;;20.52;38.25
46506;BME280;32220;49.808;9.968;2023-05-01T10:40:47;98837.81;;;20.35;38.32
46506;BME280;32220;49.808;9.968;2023-05-01T10:43:17;98839.50;;;20.36;38.99
46506;BME280;32220;49.808;9.968;2023-05-01T10:45:47;98852.53;;;20.31;38.83
46506;BME280;32220;49.808;9.968;2023-05-01T10:48:54;98847.72;;;20.17;38.83
46506;BME280;32220;49.808;9.968;2023-05-01T10:51:23;98840.06;;;20.04;39.10
46506;BME280;32220;49.808;9.968;2023-05-01T10:54:22;98831.53;;;20.09;39.91
46506;BME280;32220;49.808;9.968;2023-05-01T10:56:52;98834.59;;;20.14;39.85
46506;BME280;32220;49.808;9.968;2023-05-01T10:59:20;98827.00;;;20.09;39.74
46506;BME280;32220;49.808;9.968;2023-05-01T11:01:50;98827.19;;;20.16;40.22
46506;BME280;32220;49.808;9.968;2023-05-01T11:04:49;98830.16;;;20.05;40.08
46506;BME280;32220;49.808;9.968;2023-05-01T11:07:20;98837.72;;;19.84;40.17
46506;BME280;32220;49.808;9.968;2023-05-01T11:09:49;98831.31;;;19.67;40.44
46506;BME280;32220;49.808;9.968;2023-05-01T11:12:48;98822.44;;;19.49;41.13
46506;BME280;32220;49.808;9.968;2023-05-01T11:15:28;98812.81;;;19.28;41.10
46506;BME280;32220;49.808;9.968;2023-05-01T11:17:58;98810.50;;;19.16;41.79
46506;BME280;32220;49.808;9.968;2023-05-01T11:20:46;98796.81;;;18.91;42.04
46506;BME280;32220;49.808;9.968;2023-05-01T11:23:21;98808.25;;;18.84;42.10
46506;BME280;32220;49.808;9.968;2023-05-01T11:26:00;98804.50;;;18.67;42.24
46506;BME280;32220;49.808;9.968;2023-05-01T11:28:30;98799.75;;;18.61;42.48
46506;BME280;32220;49.808;9.968;2023-05-01T11:30:58;98804.69;;;18.56;43.27
46506;BME280;32220;49.808;9.968;2023-05-01T11:33:28;98809.25;;;18.46;42.65
46506;BME280;32220;49.808;9.968;2023-05-01T11:36:00;98804.66;;;18.28;43.35
46506;BME280;32220;49.808;9.968;2023-05-01T11:38:29;98805.84;;;17.97;44.53
46506;BME280;32220;49.808;9.968;2023-05-01T11:40:59;98781.03;;;17.56;45.83
46506;BME280;32220;49.808;9.968;2023-05-01T11:43:29;98769.63;;;17.26;46.71
46506;BME280;32220;49.808;9.968;2023-05-01T11:45:57;98764.81;;;17.10;47.18
46506;BME280;32220;49.808;9.968;2023-05-01T11:48:32;98766.94;;;17.16;47.93
46506;BME280;32220;49.808;9.968;2023-05-01T11:51:00;98776.53;;;17.28;47.92
46506;BME280;32220;49.808;9.968;2023-05-01T11:53:27;98776.53;;;17.47;47.48
46506;BME280;32220;49.808;9.968;2023-05-01T11:55:55;98771.72;;;17.60;47.74
46506;BME280;32220;49.808;9.968;2023-05-01T11:58:31;98769.91;;;17.71;47.39
46506;BME280;32220;49.808;9.968;2023-05-01T12:01:01;98765.38;;;17.81;47.71
46506;BME280;32220;49.808;9.968;2023-05-01T12:03:40;98772.56;;;18.00;46.92
46506;BME280;32220;49.808;9.968;2023-05-01T12:06:13;98758.44;;;18.07;46.83
46506;BME280;32220;49.808;9.968;2023-05-01T12:09:14;98787.41;;;18.31;46.90
46506;BME280;32220;49.808;9.968;2023-05-01T12:11:42;98773.28;;;18.39;46.48
46506;BME280;32220;49.808;9.968;2023-05-01T12:14:11;98770.47;;;18.40;45.86
46506;BME280;32220;49.808;9.968;2023-05-01T12:16:40;98771.00;;;18.44;45.83
46506;BME280;32220;49.808;9.968;2023-05-01T12:19:12;98775.50;;;18.53;45.13
46506;BME280;32220;49.808;9.968;2023-05-01T12:21:43;98768.00;;;18.66;45.46
46506;BME280;32220;49.808;9.968;2023-05-01T12:24:12;98788.41;;;18.94;44.86
46506;BME280;32220;49.808;9.968;2023-05-01T12:26:42;98782.84;;;19.06;44.94
46506;BME280;32220;49.808;9.968;2023-05-01T12:29:10;98779.19;;;19.24;44.77
46506;BME280;32220;49.808;9.968;2023-05-01T12:31:45;98778.88;;;19.45;44.36
46506;BME280;32220;49.808;9.968;2023-05-01T12:34:14;98800.56;;;19.61;44.11
46506;BME280;32220;49.808;9.968;2023-05-01T12:36:51;98800.78;;;19.68;43.16
46506;BME280;32220;49.808;9.968;2023-05-01T12:39:20;98792.97;;;19.75;43.48
46506;BME280;32220;49.808;9.968;2023-05-01T12:41:48;98781.41;;;19.82;43.40
46506;BME280;32220;49.808;9.968;2023-05-01T12:44:18;98798.41;;;20.08;42.40
46506;BME280;32220;49.808;9.968;2023-05-01T12:46:52;98782.81;;;20.12;41.88
46506;BME280;32220;49.808;9.968;2023-05-01T12:49:22;98787.97;;;20.31;42.29
46506;BME280;32220;49.808;9.968;2023-05-01T12:51:51;98796.38;;;20.54;42.74
46506;BME280;32220;49.808;9.968;2023-05-01T12:54:22;98795.31;;;20.81;42.16
46506;BME280;32220;49.808;9.968;2023-05-01T12:56:51;98783.56;;;20.90;41.53
46506;BME280;32220;49.808;9.968;2023-05-01T12:59:20;98797.09;;;21.14;40.98
46506;BME280;32220;49.808;9.968;2023-05-01T13:01:56;98804.28;;;21.40;40.61
46506;BME280;32220;49.808;9.968;2023-05-01T13:04:26;98805.84;;;21.59;40.06
46506;BME280;32220;49.808;9.968;2023-05-01T13:06:59;98825.88;;;21.80;38.47
46506;BME280;32220;49.808;9.968;2023-05-01T13:09:28;98804.31;;;21.80;37.84
46506;BME280;32220;49.808;9.968;2023-05-01T13:11:58;98808.38;;;21.93;38.66
46506;BME280;32220;49.808;9.968;2023-05-01T13:14:28;98787.97;;;21.98;39.24
46506;BME280;32220;49.808;9.968;2023-05-01T13:16:57;98774.50;;;22.06;40.46
46506;BME280;32220;49.808;9.968;2023-05-01T13:19:29;98765.56;;;22.06;40.02
46506;BME280;32220;49.808;9.968;2023-05-01T13:21:57;98795.91;;;22.16;39.12